Luba, Equatorial Guinea
Current Conditions -  °F | °C
As of 1:00 PM on Monday 20 Oct 2014 (Local Time) from FGSL Reporting Station
Thunderstorm Thunderstorm  
Wind Chill: 84°   Ceiling: 8000
Heat Index: 92°   Visibility: 6mi
Dew Point: 75°   Wind: 10mph
Humidity: 74%   Direction: 240°WSW
Pressure: 29.88"   Gusts: NA
Location:  3.46°N, 8.55°E
Report Text: FGSL 201200Z 24009KT 210V280 9999 TS SCT010 FEW020CB BKN08029/24 Q1012 BECMG NSW
Loading
Personal Weather Stations






























Interactive Weather Map
Tropical Storm Tracking
New forecast layout! Learn more

10-Day Weather Forecast

Advertisements
Track Severe Weather on mobile